METAR AND TAF INFORMATION

METAR FOR SVSA
ADDS - METARS form results

(0048 UTC 05 December 2022)
Data provider http://aviationweather.gov/metar/data/
 
Forecast for: SVSA (SAN ANTONIO TACH, VE)
Text: TAF SVSA 042200Z 0500/0600 16003KT 9999 SCT020 TX32/0519Z TN25/0508Z
Forecast period: 0000 UTC 05 December 2022 to 0000 UTC 06 December 2022
Forecast type: FROM: standard forecast or significant change
Winds: from the SSE (160 degrees) at 3 MPH (3 knots; 1.5 m/s)
Visibility: 6 or more miles (10+ km)
Ceiling: at least 12,000 feet AGL
Clouds: scattered clouds at 2000 feet AGL
Weather: no significant weather forecast for this period
Text: TEMPO 0501/0505 00000KT 9000 -DZ SCT013 BKN016
Forecast period: 0100 to 0500 UTC 05 December 2022
Forecast type: TEMPORARY: The following changes expected for less than half the time period
Winds: calm
Visibility: 6 miles (9 km)
Ceiling: 1600 feet AGL
Clouds: scattered clouds at 1300 feet AGL
broken clouds at 1600 feet AGL
Weather: -DZ  (light drizzle)

 

AIRPORT MAP

 

RUNWAY INFORMATION

Runway 17 Runway length 6135 ft Runway width 131 ft
Runway elevation 0 ft Runway displaced threshold 0 ft Runway heading 166
Runway 35 Runway length 6135 ft Runway width 131 ft
Runway elevation 0 ft Runway displaced threshold 0 ft Runway heading 346

 

AIRPORT FREQUENCIES

Type GND Name GND Frequency 121.9 MHZ
Type TWR Name TWR Frequency 118.5 MHZ

 

AIRPORT NEAR NAVIGATION AIDS